sensor_id;sensor_type;location;lat;lon;timestamp;pressure;altitude;pressure_sealevel;temperature
61189;BMP280;47054;39.716;2.904;2023-07-31T19:15:16;100101.28;;;29.49
61189;BMP280;47054;39.716;2.904;2023-07-31T19:18:04;100105.78;;;29.79
61189;BMP280;47054;39.716;2.904;2023-07-31T19:20:50;100101.03;;;29.98
61189;BMP280;47054;39.716;2.904;2023-07-31T19:23:36;100105.19;;;30.17
61189;BMP280;47054;39.716;2.904;2023-07-31T19:26:20;100108.66;;;30.26
61189;BMP280;47054;39.716;2.904;2023-07-31T19:29:06;100102.81;;;30.33
61189;BMP280;47054;39.716;2.904;2023-07-31T19:31:51;100112.22;;;30.41
61189;BMP280;47054;39.716;2.904;2023-07-31T19:34:35;100113.59;;;30.46
61189;BMP280;47054;39.716;2.904;2023-07-31T19:37:20;100125.09;;;30.50
61189;BMP280;47054;39.716;2.904;2023-07-31T19:40:05;100125.38;;;30.52
61189;BMP280;47054;39.716;2.904;2023-07-31T19:42:51;100131.88;;;30.54
61189;BMP280;47054;39.716;2.904;2023-07-31T19:45:45;100140.44;;;30.56
61189;BMP280;47054;39.716;2.904;2023-07-31T19:48:31;100143.94;;;30.57
61189;BMP280;47054;39.716;2.904;2023-07-31T19:51:16;100138.91;;;30.55
61189;BMP280;47054;39.716;2.904;2023-07-31T19:54:01;100142.84;;;30.54
61189;BMP280;47054;39.716;2.904;2023-07-31T19:56:45;100142.56;;;30.52
61189;BMP280;47054;39.716;2.904;2023-07-31T19:59:32;100143.78;;;30.51
61189;BMP280;47054;39.716;2.904;2023-07-31T20:02:17;100134.06;;;30.50
61189;BMP280;47054;39.716;2.904;2023-07-31T20:05:03;100136.41;;;30.43
61189;BMP280;47054;39.716;2.904;2023-07-31T20:07:47;100142.31;;;30.41
61189;BMP280;47054;39.716;2.904;2023-07-31T20:10:34;100144.59;;;30.43
61189;BMP280;47054;39.716;2.904;2023-07-31T20:13:19;100157.22;;;30.40
61189;BMP280;47054;39.716;2.904;2023-07-31T20:16:06;100160.56;;;30.35
61189;BMP280;47054;39.716;2.904;2023-07-31T20:18:50;100156.03;;;30.32
61189;BMP280;47054;39.716;2.904;2023-07-31T20:21:35;100148.28;;;30.31
61189;BMP280;47054;39.716;2.904;2023-07-31T20:24:22;100154.69;;;30.28
61189;BMP280;47054;39.716;2.904;2023-07-31T20:27:07;100155.31;;;30.23
61189;BMP280;47054;39.716;2.904;2023-07-31T20:29:52;100147.75;;;30.18
61189;BMP280;47054;39.716;2.904;2023-07-31T20:32:37;100155.19;;;30.17
61189;BMP280;47054;39.716;2.904;2023-07-31T20:35:21;100149.09;;;30.13
61189;BMP280;47054;39.716;2.904;2023-07-31T20:38:10;100151.56;;;30.11
61189;BMP280;47054;39.716;2.904;2023-07-31T20:40:55;100158.41;;;30.07
61189;BMP280;47054;39.716;2.904;2023-07-31T20:43:41;100150.38;;;30.03
61189;BMP280;47054;39.716;2.904;2023-07-31T20:46:25;100150.53;;;30.00
61189;BMP280;47054;39.716;2.904;2023-07-31T20:49:10;100142.47;;;29.96
61189;BMP280;47054;39.716;2.904;2023-07-31T20:51:55;100152.22;;;29.97
61189;BMP280;47054;39.716;2.904;2023-07-31T20:54:40;100153.41;;;29.96
61189;BMP280;47054;39.716;2.904;2023-07-31T20:57:24;100146.75;;;29.88
61189;BMP280;47054;39.716;2.904;2023-07-31T21:00:11;100160.72;;;29.90
61189;BMP280;47054;39.716;2.904;2023-07-31T21:02:59;100167.41;;;29.89
61189;BMP280;47054;39.716;2.904;2023-07-31T21:05:51;100163.16;;;29.88
61189;BMP280;47054;39.716;2.904;2023-07-31T21:08:36;100152.84;;;29.83
61189;BMP280;47054;39.716;2.904;2023-07-31T21:11:21;100149.06;;;29.81
61189;BMP280;47054;39.716;2.904;2023-07-31T21:14:06;100152.84;;;29.83
61189;BMP280;47054;39.716;2.904;2023-07-31T21:16:51;100157.69;;;29.79
61189;BMP280;47054;39.716;2.904;2023-07-31T21:19:37;100152.72;;;29.78
61189;BMP280;47054;39.716;2.904;2023-07-31T21:22:22;100154.84;;;29.74
61189;BMP280;47054;39.716;2.904;2023-07-31T21:25:08;100156.81;;;29.73
61189;BMP280;47054;39.716;2.904;2023-07-31T21:27:53;100153.34;;;29.73
61189;BMP280;47054;39.716;2.904;2023-07-31T21:30:38;100155.75;;;29.71
61189;BMP280;47054;39.716;2.904;2023-07-31T21:33:24;100153.34;;;29.64
61189;BMP280;47054;39.716;2.904;2023-07-31T21:36:09;100155.44;;;29.69
61189;BMP280;47054;39.716;2.904;2023-07-31T21:38:55;100156.50;;;29.62
61189;BMP280;47054;39.716;2.904;2023-07-31T21:41:41;100166.25;;;29.63
61189;BMP280;47054;39.716;2.904;2023-07-31T21:44:26;100161.97;;;29.62
61189;BMP280;47054;39.716;2.904;2023-07-31T21:47:11;100159.69;;;29.61
61189;BMP280;47054;39.716;2.904;2023-07-31T21:49:56;100157.75;;;29.61
61189;BMP280;47054;39.716;2.904;2023-07-31T21:52:41;100160.16;;;29.59
61189;BMP280;47054;39.716;2.904;2023-07-31T21:55:26;100147.41;;;29.56
61189;BMP280;47054;39.716;2.904;2023-07-31T21:58:12;100153.66;;;29.57
